sensor_id;sensor_type;location;lat;lon;timestamp;P1;durP1;ratioP1;P2;durP2;ratioP2
7983;SDS011;4037;47.980;10.172;2024-03-02T00:02:06;9.53;;;8.10;;
7983;SDS011;4037;47.980;10.172;2024-03-02T00:04:32;8.10;;;6.93;;
7983;SDS011;4037;47.980;10.172;2024-03-02T00:06:58;8.43;;;7.50;;
7983;SDS011;4037;47.980;10.172;2024-03-02T00:09:24;9.20;;;6.90;;
7983;SDS011;4037;47.980;10.172;2024-03-02T00:11:50;7.80;;;7.00;;
7983;SDS011;4037;47.980;10.172;2024-03-02T00:14:16;8.67;;;7.03;;
7983;SDS011;4037;47.980;10.172;2024-03-02T00:16:42;8.97;;;7.03;;
7983;SDS011;4037;47.980;10.172;2024-03-02T00:19:08;7.60;;;6.80;;
7983;SDS011;4037;47.980;10.172;2024-03-02T00:21:35;7.00;;;6.10;;
7983;SDS011;4037;47.980;10.172;2024-03-02T00:24:01;8.23;;;6.43;;
7983;SDS011;4037;47.980;10.172;2024-03-02T00:26:29;7.27;;;6.43;;
7983;SDS011;4037;47.980;10.172;2024-03-02T00:28:55;7.17;;;6.37;;
7983;SDS011;4037;47.980;10.172;2024-03-02T00:31:22;7.73;;;6.93;;
7983;SDS011;4037;47.980;10.172;2024-03-02T00:33:48;7.63;;;6.73;;
7983;SDS011;4037;47.980;10.172;2024-03-02T00:36:15;8.57;;;7.03;;
7983;SDS011;4037;47.980;10.172;2024-03-02T00:38:45;6.73;;;5.90;;
7983;SDS011;4037;47.980;10.172;2024-03-02T00:41:15;6.40;;;5.80;;
7983;SDS011;4037;47.980;10.172;2024-03-02T00:46:08;7.60;;;6.53;;
7983;SDS011;4037;47.980;10.172;2024-03-02T00:48:34;8.33;;;6.40;;
7983;SDS011;4037;47.980;10.172;2024-03-02T00:51:01;7.33;;;6.53;;
7983;SDS011;4037;47.980;10.172;2024-03-02T00:53:30;7.00;;;6.20;;
7983;SDS011;4037;47.980;10.172;2024-03-02T00:56:00;7.87;;;6.03;;
7983;SDS011;4037;47.980;10.172;2024-03-02T00:58:26;8.33;;;6.47;;
7983;SDS011;4037;47.980;10.172;2024-03-02T01:00:52;7.47;;;6.47;;
7983;SDS011;4037;47.980;10.172;2024-03-02T01:03:18;9.57;;;7.43;;
7983;SDS011;4037;47.980;10.172;2024-03-02T01:05:45;10.00;;;7.90;;
7983;SDS011;4037;47.980;10.172;2024-03-02T01:08:11;12.60;;;8.50;;
7983;SDS011;4037;47.980;10.172;2024-03-02T01:10:37;10.57;;;8.27;;
7983;SDS011;4037;47.980;10.172;2024-03-02T01:13:04;12.20;;;8.87;;
7983;SDS011;4037;47.980;10.172;2024-03-02T01:15:30;11.73;;;8.33;;
7983;SDS011;4037;47.980;10.172;2024-03-02T01:17:56;11.07;;;8.10;;
7983;SDS011;4037;47.980;10.172;2024-03-02T01:20:22;11.00;;;7.93;;
7983;SDS011;4037;47.980;10.172;2024-03-02T01:22:49;10.10;;;7.50;;
7983;SDS011;4037;47.980;10.172;2024-03-02T01:25:15;8.60;;;7.60;;
7983;SDS011;4037;47.980;10.172;2024-03-02T01:27:42;7.50;;;6.70;;
7983;SDS011;4037;47.980;10.172;2024-03-02T01:30:08;8.63;;;6.93;;
7983;SDS011;4037;47.980;10.172;2024-03-02T01:32:37;10.23;;;7.30;;
7983;SDS011;4037;47.980;10.172;2024-03-02T01:35:03;9.33;;;7.27;;
7983;SDS011;4037;47.980;10.172;2024-03-02T01:37:29;10.40;;;8.43;;
7983;SDS011;4037;47.980;10.172;2024-03-02T01:39:55;9.03;;;6.70;;
7983;SDS011;4037;47.980;10.172;2024-03-02T01:42:21;8.33;;;7.07;;
7983;SDS011;4037;47.980;10.172;2024-03-02T01:44:47;9.23;;;7.00;;
7983;SDS011;4037;47.980;10.172;2024-03-02T01:47:13;10.20;;;7.60;;
7983;SDS011;4037;47.980;10.172;2024-03-02T01:49:39;9.07;;;7.13;;
7983;SDS011;4037;47.980;10.172;2024-03-02T01:52:06;10.27;;;7.47;;
7983;SDS011;4037;47.980;10.172;2024-03-02T01:54:32;9.20;;;7.37;;
7983;SDS011;4037;47.980;10.172;2024-03-02T01:56:59;7.73;;;6.50;;
7983;SDS011;4037;47.980;10.172;2024-03-02T01:59:25;10.00;;;7.43;;
7983;SDS011;4037;47.980;10.172;2024-03-02T02:01:51;8.60;;;6.90;;
7983;SDS011;4037;47.980;10.172;2024-03-02T02:04:17;9.47;;;7.40;;
7983;SDS011;4037;47.980;10.172;2024-03-02T02:06:46;9.70;;;6.97;;
7983;SDS011;4037;47.980;10.172;2024-03-02T02:09:12;9.23;;;7.40;;
7983;SDS011;4037;47.980;10.172;2024-03-02T02:11:38;8.67;;;7.17;;
7983;SDS011;4037;47.980;10.172;2024-03-02T02:14:05;8.30;;;6.67;;
7983;SDS011;4037;47.980;10.172;2024-03-02T02:16:32;8.63;;;7.67;;
7983;SDS011;4037;47.980;10.172;2024-03-02T02:18:58;8.43;;;7.27;;
7983;SDS011;4037;47.980;10.172;2024-03-02T02:21:23;8.17;;;7.27;;
7983;SDS011;4037;47.980;10.172;2024-03-02T02:23:50;8.20;;;6.93;;
7983;SDS011;4037;47.980;10.172;2024-03-02T02:26:16;9.33;;;7.23;;
7983;SDS011;4037;47.980;10.172;2024-03-02T02:28:42;8.17;;;6.87;;
7983;SDS011;4037;47.980;10.172;2024-03-02T02:31:12;8.90;;;7.83;;
7983;SDS011;4037;47.980;10.172;2024-03-02T02:33:39;9.13;;;6.80;;
7983;SDS011;4037;47.980;10.172;2024-03-02T02:36:05;8.03;;;7.07;;
7983;SDS011;4037;47.980;10.172;2024-03-02T02:38:32;9.30;;;6.27;;
7983;SDS011;4037;47.980;10.172;2024-03-02T02:40:59;10.20;;;7.70;;
7983;SDS011;4037;47.980;10.172;2024-03-02T02:43:25;9.53;;;7.00;;
7983;SDS011;4037;47.980;10.172;2024-03-02T02:45:50;9.73;;;7.10;;
7983;SDS011;4037;47.980;10.172;2024-03-02T02:48:17;7.43;;;6.73;;
7983;SDS011;4037;47.980;10.172;2024-03-02T02:50:42;8.37;;;6.40;;
7983;SDS011;4037;47.980;10.172;2024-03-02T02:53:08;7.43;;;6.47;;
7983;SDS011;4037;47.980;10.172;2024-03-02T02:55:35;7.30;;;6.23;;
7983;SDS011;4037;47.980;10.172;2024-03-02T02:58:05;6.43;;;5.83;;
7983;SDS011;4037;47.980;10.172;2024-03-02T03:00:31;7.73;;;6.03;;
7983;SDS011;4037;47.980;10.172;2024-03-02T03:02:57;7.33;;;5.70;;
7983;SDS011;4037;47.980;10.172;2024-03-02T03:05:23;6.63;;;5.60;;
7983;SDS011;4037;47.980;10.172;2024-03-02T03:07:49;6.93;;;6.20;;
7983;SDS011;4037;47.980;10.172;2024-03-02T03:10:15;6.73;;;5.73;;
7983;SDS011;4037;47.980;10.172;2024-03-02T03:12:42;5.73;;;5.10;;
7983;SDS011;4037;47.980;10.172;2024-03-02T03:15:08;6.30;;;5.47;;
7983;SDS011;4037;47.980;10.172;2024-03-02T03:17:35;6.50;;;5.80;;
7983;SDS011;4037;47.980;10.172;2024-03-02T03:20:02;7.63;;;6.37;;
7983;SDS011;4037;47.980;10.172;2024-03-02T03:22:29;7.27;;;5.70;;
7983;SDS011;4037;47.980;10.172;2024-03-02T03:24:56;6.30;;;5.57;;
7983;SDS011;4037;47.980;10.172;2024-03-02T03:27:22;9.00;;;6.93;;
7983;SDS011;4037;47.980;10.172;2024-03-02T03:29:48;7.47;;;6.10;;
7983;SDS011;4037;47.980;10.172;2024-03-02T03:32:14;7.20;;;6.07;;
7983;SDS011;4037;47.980;10.172;2024-03-02T03:34:41;6.47;;;5.53;;
7983;SDS011;4037;47.980;10.172;2024-03-02T03:37:07;6.93;;;5.67;;
7983;SDS011;4037;47.980;10.172;2024-03-02T03:39:35;6.83;;;6.13;;
7983;SDS011;4037;47.980;10.172;2024-03-02T03:42:01;6.83;;;5.90;;
7983;SDS011;4037;47.980;10.172;2024-03-02T03:44:27;6.43;;;5.73;;
7983;SDS011;4037;47.980;10.172;2024-03-02T03:46:53;6.20;;;5.53;;
7983;SDS011;4037;47.980;10.172;2024-03-02T03:49:19;7.97;;;6.10;;
7983;SDS011;4037;47.980;10.172;2024-03-02T03:51:46;8.00;;;6.10;;
7983;SDS011;4037;47.980;10.172;2024-03-02T03:54:12;7.40;;;5.73;;
7983;SDS011;4037;47.980;10.172;2024-03-02T03:56:38;7.37;;;6.07;;
7983;SDS011;4037;47.980;10.172;2024-03-02T03:59:04;7.63;;;6.40;;
7983;SDS011;4037;47.980;10.172;2024-03-02T04:01:30;6.97;;;6.23;;
7983;SDS011;4037;47.980;10.172;2024-03-02T04:03:59;6.93;;;6.07;;
7983;SDS011;4037;47.980;10.172;2024-03-02T04:06:27;6.53;;;5.87;;
7983;SDS011;4037;47.980;10.172;2024-03-02T04:08:53;7.57;;;5.90;;
7983;SDS011;4037;47.980;10.172;2024-03-02T04:11:18;6.53;;;5.67;;
7983;SDS011;4037;47.980;10.172;2024-03-02T04:13:44;8.00;;;5.47;;
7983;SDS011;4037;47.980;10.172;2024-03-02T04:16:11;6.17;;;5.40;;
7983;SDS011;4037;47.980;10.172;2024-03-02T04:18:37;7.23;;;6.07;;
7983;SDS011;4037;47.980;10.172;2024-03-02T04:21:04;6.27;;;5.67;;
7983;SDS011;4037;47.980;10.172;2024-03-02T04:23:30;8.30;;;5.73;;
7983;SDS011;4037;47.980;10.172;2024-03-02T04:25:56;6.23;;;5.63;;
7983;SDS011;4037;47.980;10.172;2024-03-02T04:28:22;7.23;;;5.87;;
7983;SDS011;4037;47.980;10.172;2024-03-02T04:30:48;8.07;;;5.50;;
7983;SDS011;4037;47.980;10.172;2024-03-02T04:33:14;6.43;;;5.33;;
7983;SDS011;4037;47.980;10.172;2024-03-02T04:35:40;6.67;;;4.97;;
7983;SDS011;4037;47.980;10.172;2024-03-02T04:38:06;5.77;;;5.00;;
7983;SDS011;4037;47.980;10.172;2024-03-02T04:40:33;6.40;;;5.80;;
7983;SDS011;4037;47.980;10.172;2024-03-02T04:42:59;7.00;;;5.30;;
7983;SDS011;4037;47.980;10.172;2024-03-02T04:45:25;6.57;;;5.17;;
7983;SDS011;4037;47.980;10.172;2024-03-02T04:47:51;6.00;;;4.83;;
7983;SDS011;4037;47.980;10.172;2024-03-02T04:50:17;6.17;;;5.00;;
7983;SDS011;4037;47.980;10.172;2024-03-02T04:52:43;5.83;;;4.87;;
7983;SDS011;4037;47.980;10.172;2024-03-02T04:55:09;7.13;;;5.43;;
7983;SDS011;4037;47.980;10.172;2024-03-02T04:57:42;5.43;;;4.57;;
7983;SDS011;4037;47.980;10.172;2024-03-02T05:00:08;6.37;;;5.40;;
7983;SDS011;4037;47.980;10.172;2024-03-02T05:02:34;6.90;;;5.30;;
7983;SDS011;4037;47.980;10.172;2024-03-02T05:05:01;6.63;;;5.07;;
7983;SDS011;4037;47.980;10.172;2024-03-02T05:07:27;6.73;;;5.27;;
7983;SDS011;4037;47.980;10.172;2024-03-02T05:09:53;6.60;;;4.97;;
7983;SDS011;4037;47.980;10.172;2024-03-02T05:12:19;6.23;;;5.27;;
7983;SDS011;4037;47.980;10.172;2024-03-02T05:15:04;8.23;;;5.80;;
7983;SDS011;4037;47.980;10.172;2024-03-02T05:17:30;6.00;;;5.40;;
7983;SDS011;4037;47.980;10.172;2024-03-02T05:19:56;6.43;;;5.23;;
7983;SDS011;4037;47.980;10.172;2024-03-02T05:22:22;5.30;;;4.63;;
7983;SDS011;4037;47.980;10.172;2024-03-02T05:24:48;5.60;;;4.97;;
7983;SDS011;4037;47.980;10.172;2024-03-02T05:27:14;5.13;;;4.50;;
7983;SDS011;4037;47.980;10.172;2024-03-02T05:29:40;7.37;;;5.37;;
7983;SDS011;4037;47.980;10.172;2024-03-02T05:32:06;5.90;;;4.37;;
7983;SDS011;4037;47.980;10.172;2024-03-02T05:34:32;6.70;;;5.03;;
7983;SDS011;4037;47.980;10.172;2024-03-02T05:37:00;6.67;;;4.53;;
7983;SDS011;4037;47.980;10.172;2024-03-02T05:39:26;6.33;;;5.10;;
7983;SDS011;4037;47.980;10.172;2024-03-02T05:41:52;4.83;;;4.37;;
7983;SDS011;4037;47.980;10.172;2024-03-02T05:44:18;6.93;;;5.43;;
7983;SDS011;4037;47.980;10.172;2024-03-02T05:46:45;5.77;;;4.93;;
7983;SDS011;4037;47.980;10.172;2024-03-02T05:49:11;5.20;;;4.70;;
7983;SDS011;4037;47.980;10.172;2024-03-02T05:51:37;6.30;;;5.40;;
7983;SDS011;4037;47.980;10.172;2024-03-02T05:54:03;5.73;;;5.10;;
7983;SDS011;4037;47.980;10.172;2024-03-02T05:56:29;5.03;;;4.50;;
7983;SDS011;4037;47.980;10.172;2024-03-02T05:58:55;5.40;;;4.80;;
7983;SDS011;4037;47.980;10.172;2024-03-02T06:01:45;6.43;;;5.27;;
7983;SDS011;4037;47.980;10.172;2024-03-02T06:04:17;5.60;;;4.40;;
7983;SDS011;4037;47.980;10.172;2024-03-02T06:06:43;5.73;;;4.30;;
7983;SDS011;4037;47.980;10.172;2024-03-02T06:09:09;5.90;;;4.93;;
7983;SDS011;4037;47.980;10.172;2024-03-02T06:11:39;6.77;;;4.80;;
7983;SDS011;4037;47.980;10.172;2024-03-02T06:14:06;5.37;;;4.83;;
7983;SDS011;4037;47.980;10.172;2024-03-02T06:16:32;5.17;;;4.63;;
7983;SDS011;4037;47.980;10.172;2024-03-02T06:18:58;7.70;;;5.03;;
7983;SDS011;4037;47.980;10.172;2024-03-02T06:21:24;8.20;;;5.10;;
7983;SDS011;4037;47.980;10.172;2024-03-02T06:23:50;5.07;;;4.20;;
7983;SDS011;4037;47.980;10.172;2024-03-02T06:26:17;5.77;;;4.83;;
7983;SDS011;4037;47.980;10.172;2024-03-02T06:28:43;6.03;;;4.40;;
7983;SDS011;4037;47.980;10.172;2024-03-02T06:31:09;4.83;;;4.10;;
7983;SDS011;4037;47.980;10.172;2024-03-02T06:33:35;5.27;;;4.33;;
7983;SDS011;4037;47.980;10.172;2024-03-02T06:36:01;5.97;;;4.57;;
7983;SDS011;4037;47.980;10.172;2024-03-02T06:38:27;5.40;;;4.47;;
7983;SDS011;4037;47.980;10.172;2024-03-02T06:40:54;5.37;;;3.60;;
7983;SDS011;4037;47.980;10.172;2024-03-02T06:43:20;5.73;;;4.57;;
7983;SDS011;4037;47.980;10.172;2024-03-02T06:45:50;4.50;;;4.10;;
7983;SDS011;4037;47.980;10.172;2024-03-02T06:48:16;4.30;;;3.90;;
7983;SDS011;4037;47.980;10.172;2024-03-02T06:50:45;4.80;;;4.40;;
7983;SDS011;4037;47.980;10.172;2024-03-02T06:53:12;5.00;;;4.50;;
7983;SDS011;4037;47.980;10.172;2024-03-02T06:55:38;4.30;;;3.53;;
7983;SDS011;4037;47.980;10.172;2024-03-02T06:58:04;4.27;;;3.87;;
7983;SDS011;4037;47.980;10.172;2024-03-02T07:00:31;6.03;;;3.63;;
7983;SDS011;4037;47.980;10.172;2024-03-02T07:02:57;5.33;;;4.77;;
7983;SDS011;4037;47.980;10.172;2024-03-02T07:05:23;5.23;;;3.60;;
7983;SDS011;4037;47.980;10.172;2024-03-02T07:07:49;6.63;;;4.60;;
7983;SDS011;4037;47.980;10.172;2024-03-02T07:10:15;4.53;;;3.60;;
7983;SDS011;4037;47.980;10.172;2024-03-02T07:12:41;4.43;;;3.87;;
7983;SDS011;4037;47.980;10.172;2024-03-02T07:15:07;3.77;;;3.47;;
7983;SDS011;4037;47.980;10.172;2024-03-02T07:17:43;5.40;;;3.83;;
7983;SDS011;4037;47.980;10.172;2024-03-02T07:20:09;4.33;;;3.93;;
7983;SDS011;4037;47.980;10.172;2024-03-02T07:22:37;4.80;;;4.30;;
7983;SDS011;4037;47.980;10.172;2024-03-02T07:25:04;5.90;;;4.57;;
7983;SDS011;4037;47.980;10.172;2024-03-02T07:27:32;4.30;;;3.90;;
7983;SDS011;4037;47.980;10.172;2024-03-02T07:30:00;5.93;;;4.20;;
7983;SDS011;4037;47.980;10.172;2024-03-02T07:32:26;6.47;;;4.93;;
7983;SDS011;4037;47.980;10.172;2024-03-02T07:34:52;5.63;;;4.80;;
7983;SDS011;4037;47.980;10.172;2024-03-02T07:37:18;5.67;;;4.80;;
7983;SDS011;4037;47.980;10.172;2024-03-02T07:39:45;5.50;;;5.00;;
7983;SDS011;4037;47.980;10.172;2024-03-02T07:42:11;6.43;;;4.60;;
7983;SDS011;4037;47.980;10.172;2024-03-02T07:44:37;5.50;;;4.87;;
7983;SDS011;4037;47.980;10.172;2024-03-02T07:47:03;6.77;;;5.47;;
7983;SDS011;4037;47.980;10.172;2024-03-02T07:49:29;6.30;;;4.97;;
7983;SDS011;4037;47.980;10.172;2024-03-02T07:51:55;7.60;;;4.93;;
7983;SDS011;4037;47.980;10.172;2024-03-02T07:54:21;9.27;;;6.33;;
7983;SDS011;4037;47.980;10.172;2024-03-02T07:56:47;9.13;;;6.37;;
7983;SDS011;4037;47.980;10.172;2024-03-02T07:59:13;7.93;;;6.10;;
7983;SDS011;4037;47.980;10.172;2024-03-02T08:01:39;6.43;;;5.73;;
7983;SDS011;4037;47.980;10.172;2024-03-02T08:04:05;7.33;;;6.33;;
7983;SDS011;4037;47.980;10.172;2024-03-02T08:06:32;9.03;;;7.30;;
7983;SDS011;4037;47.980;10.172;2024-03-02T08:08:58;10.37;;;7.50;;
7983;SDS011;4037;47.980;10.172;2024-03-02T08:11:24;9.50;;;6.90;;
7983;SDS011;4037;47.980;10.172;2024-03-02T08:13:52;7.80;;;6.87;;
7983;SDS011;4037;47.980;10.172;2024-03-02T08:16:19;7.97;;;6.80;;
7983;SDS011;4037;47.980;10.172;2024-03-02T08:18:47;8.50;;;6.73;;
7983;SDS011;4037;47.980;10.172;2024-03-02T08:21:13;8.87;;;6.80;;
7983;SDS011;4037;47.980;10.172;2024-03-02T08:23:40;6.80;;;5.43;;
7983;SDS011;4037;47.980;10.172;2024-03-02T08:26:07;8.00;;;6.13;;
7983;SDS011;4037;47.980;10.172;2024-03-02T08:28:33;8.00;;;6.20;;
7983;SDS011;4037;47.980;10.172;2024-03-02T08:30:59;8.20;;;6.13;;
7983;SDS011;4037;47.980;10.172;2024-03-02T08:33:26;9.00;;;6.20;;
7983;SDS011;4037;47.980;10.172;2024-03-02T08:35:51;7.73;;;6.00;;
7983;SDS011;4037;47.980;10.172;2024-03-02T08:38:18;7.40;;;5.37;;
7983;SDS011;4037;47.980;10.172;2024-03-02T08:40:44;6.63;;;5.83;;
7983;SDS011;4037;47.980;10.172;2024-03-02T08:43:10;4.30;;;3.90;;
7983;SDS011;4037;47.980;10.172;2024-03-02T08:45:36;5.70;;;4.60;;
7983;SDS011;4037;47.980;10.172;2024-03-02T08:48:04;5.10;;;4.17;;
7983;SDS011;4037;47.980;10.172;2024-03-02T08:50:30;5.43;;;4.67;;
7983;SDS011;4037;47.980;10.172;2024-03-02T08:52:57;5.23;;;4.07;;
7983;SDS011;4037;47.980;10.172;2024-03-02T08:55:23;4.83;;;4.27;;
7983;SDS011;4037;47.980;10.172;2024-03-02T08:57:49;5.90;;;4.17;;
7983;SDS011;4037;47.980;10.172;2024-03-02T09:00:15;4.20;;;3.80;;
7983;SDS011;4037;47.980;10.172;2024-03-02T09:02:43;4.20;;;3.43;;
7983;SDS011;4037;47.980;10.172;2024-03-02T09:05:09;3.00;;;2.60;;
7983;SDS011;4037;47.980;10.172;2024-03-02T09:07:35;4.23;;;3.17;;
7983;SDS011;4037;47.980;10.172;2024-03-02T09:10:03;4.43;;;3.60;;
7983;SDS011;4037;47.980;10.172;2024-03-02T09:12:29;3.23;;;2.57;;
7983;SDS011;4037;47.980;10.172;2024-03-02T09:14:55;2.80;;;2.40;;
7983;SDS011;4037;47.980;10.172;2024-03-02T09:17:22;2.87;;;2.60;;
7983;SDS011;4037;47.980;10.172;2024-03-02T09:19:48;3.60;;;2.57;;
7983;SDS011;4037;47.980;10.172;2024-03-02T09:22:17;2.73;;;2.43;;
7983;SDS011;4037;47.980;10.172;2024-03-02T09:24:43;3.10;;;2.70;;
7983;SDS011;4037;47.980;10.172;2024-03-02T09:27:09;3.00;;;2.70;;
7983;SDS011;4037;47.980;10.172;2024-03-02T09:29:35;3.47;;;2.70;;
7983;SDS011;4037;47.980;10.172;2024-03-02T09:32:02;2.83;;;2.53;;
7983;SDS011;4037;47.980;10.172;2024-03-02T09:34:28;3.00;;;2.53;;
7983;SDS011;4037;47.980;10.172;2024-03-02T09:36:54;3.63;;;3.10;;
7983;SDS011;4037;47.980;10.172;2024-03-02T09:39:20;3.73;;;3.40;;
7983;SDS011;4037;47.980;10.172;2024-03-02T09:41:46;3.73;;;3.30;;
7983;SDS011;4037;47.980;10.172;2024-03-02T09:44:13;4.07;;;3.33;;
7983;SDS011;4037;47.980;10.172;2024-03-02T09:46:40;3.70;;;3.17;;
7983;SDS011;4037;47.980;10.172;2024-03-02T09:49:08;3.63;;;3.03;;
7983;SDS011;4037;47.980;10.172;2024-03-02T09:51:34;3.00;;;2.43;;
7983;SDS011;4037;47.980;10.172;2024-03-02T09:54:01;3.53;;;2.50;;
7983;SDS011;4037;47.980;10.172;2024-03-02T09:56:27;2.67;;;2.10;;
7983;SDS011;4037;47.980;10.172;2024-03-02T09:58:53;2.30;;;2.10;;
7983;SDS011;4037;47.980;10.172;2024-03-02T10:01:19;2.20;;;2.00;;
7983;SDS011;4037;47.980;10.172;2024-03-02T10:03:45;2.10;;;1.73;;
7983;SDS011;4037;47.980;10.172;2024-03-02T10:06:24;1.70;;;1.40;;
7983;SDS011;4037;47.980;10.172;2024-03-02T10:08:51;1.67;;;1.57;;
7983;SDS011;4037;47.980;10.172;2024-03-02T10:11:30;1.90;;;1.80;;
7983;SDS011;4037;47.980;10.172;2024-03-02T10:14:07;1.77;;;1.67;;
7983;SDS011;4037;47.980;10.172;2024-03-02T10:16:34;1.87;;;1.40;;
7983;SDS011;4037;47.980;10.172;2024-03-02T10:19:22;1.90;;;1.77;;
7983;SDS011;4037;47.980;10.172;2024-03-02T10:21:47;1.40;;;1.30;;
7983;SDS011;4037;47.980;10.172;2024-03-02T10:24:14;3.03;;;2.53;;
7983;SDS011;4037;47.980;10.172;2024-03-02T10:26:40;1.97;;;1.80;;
7983;SDS011;4037;47.980;10.172;2024-03-02T10:29:07;2.10;;;1.90;;
7983;SDS011;4037;47.980;10.172;2024-03-02T10:31:35;1.63;;;1.50;;
7983;SDS011;4037;47.980;10.172;2024-03-02T10:34:02;1.50;;;1.30;;
7983;SDS011;4037;47.980;10.172;2024-03-02T10:36:29;1.83;;;1.40;;
7983;SDS011;4037;47.980;10.172;2024-03-02T10:38:58;1.77;;;1.67;;
7983;SDS011;4037;47.980;10.172;2024-03-02T10:41:24;1.40;;;1.30;;
7983;SDS011;4037;47.980;10.172;2024-03-02T10:43:52;1.97;;;1.50;;
7983;SDS011;4037;47.980;10.172;2024-03-02T10:46:26;1.40;;;1.30;;
7983;SDS011;4037;47.980;10.172;2024-03-02T10:48:54;1.97;;;1.80;;
7983;SDS011;4037;47.980;10.172;2024-03-02T10:51:20;1.90;;;1.67;;
7983;SDS011;4037;47.980;10.172;2024-03-02T10:53:47;1.90;;;1.80;;
7983;SDS011;4037;47.980;10.172;2024-03-02T10:56:14;2.27;;;1.87;;
7983;SDS011;4037;47.980;10.172;2024-03-02T10:58:41;1.87;;;1.77;;
7983;SDS011;4037;47.980;10.172;2024-03-02T11:01:07;2.20;;;2.00;;
7983;SDS011;4037;47.980;10.172;2024-03-02T11:03:35;3.50;;;2.10;;
7983;SDS011;4037;47.980;10.172;2024-03-02T11:06:07;2.40;;;2.17;;
7983;SDS011;4037;47.980;10.172;2024-03-02T11:08:34;2.30;;;2.10;;
7983;SDS011;4037;47.980;10.172;2024-03-02T11:11:05;1.73;;;1.63;;
7983;SDS011;4037;47.980;10.172;2024-03-02T11:13:32;1.60;;;1.50;;
7983;SDS011;4037;47.980;10.172;2024-03-02T11:15:59;1.70;;;1.40;;
7983;SDS011;4037;47.980;10.172;2024-03-02T11:18:27;1.30;;;1.20;;
7983;SDS011;4037;47.980;10.172;2024-03-02T11:20:55;1.50;;;1.40;;
7983;SDS011;4037;47.980;10.172;2024-03-02T11:23:31;1.23;;;1.13;;
7983;SDS011;4037;47.980;10.172;2024-03-02T11:26:17;1.70;;;1.60;;
7983;SDS011;4037;47.980;10.172;2024-03-02T11:28:44;2.00;;;1.80;;
7983;SDS011;4037;47.980;10.172;2024-03-02T11:31:10;1.27;;;1.17;;
7983;SDS011;4037;47.980;10.172;2024-03-02T11:33:36;2.10;;;1.50;;
7983;SDS011;4037;47.980;10.172;2024-03-02T11:36:02;1.50;;;1.30;;
7983;SDS011;4037;47.980;10.172;2024-03-02T11:38:30;1.30;;;1.20;;
7983;SDS011;4037;47.980;10.172;2024-03-02T11:40:57;2.27;;;1.60;;
7983;SDS011;4037;47.980;10.172;2024-03-02T11:43:23;2.00;;;1.60;;
7983;SDS011;4037;47.980;10.172;2024-03-02T11:46:03;2.17;;;1.63;;
7983;SDS011;4037;47.980;10.172;2024-03-02T11:48:32;1.47;;;1.37;;
7983;SDS011;4037;47.980;10.172;2024-03-02T11:50:58;1.40;;;1.07;;
7983;SDS011;4037;47.980;10.172;2024-03-02T11:53:26;2.93;;;1.57;;
7983;SDS011;4037;47.980;10.172;2024-03-02T11:55:59;1.50;;;1.30;;
7983;SDS011;4037;47.980;10.172;2024-03-02T11:58:27;2.50;;;1.17;;
7983;SDS011;4037;47.980;10.172;2024-03-02T12:00:54;1.90;;;1.70;;
7983;SDS011;4037;47.980;10.172;2024-03-02T12:03:22;1.50;;;1.40;;
7983;SDS011;4037;47.980;10.172;2024-03-02T12:05:49;1.67;;;1.57;;
7983;SDS011;4037;47.980;10.172;2024-03-02T12:08:15;2.50;;;1.23;;
7983;SDS011;4037;47.980;10.172;2024-03-02T12:10:42;1.57;;;1.23;;
7983;SDS011;4037;47.980;10.172;2024-03-02T12:13:09;1.77;;;1.30;;
7983;SDS011;4037;47.980;10.172;2024-03-02T12:15:38;1.97;;;1.60;;
7983;SDS011;4037;47.980;10.172;2024-03-02T12:18:05;2.70;;;1.53;;
7983;SDS011;4037;47.980;10.172;2024-03-02T12:20:32;2.17;;;1.70;;
7983;SDS011;4037;47.980;10.172;2024-03-02T12:22:58;1.80;;;1.60;;
7983;SDS011;4037;47.980;10.172;2024-03-02T12:25:25;1.87;;;1.53;;
7983;SDS011;4037;47.980;10.172;2024-03-02T12:27:55;2.80;;;1.57;;
7983;SDS011;4037;47.980;10.172;2024-03-02T12:30:21;2.97;;;1.20;;
7983;SDS011;4037;47.980;10.172;2024-03-02T12:32:48;2.20;;;1.43;;
7983;SDS011;4037;47.980;10.172;2024-03-02T12:35:14;1.77;;;1.40;;
7983;SDS011;4037;47.980;10.172;2024-03-02T12:40:10;1.30;;;1.20;;
7983;SDS011;4037;47.980;10.172;2024-03-02T12:42:37;1.53;;;1.30;;
7983;SDS011;4037;47.980;10.172;2024-03-02T12:45:03;8.93;;;1.77;;
7983;SDS011;4037;47.980;10.172;2024-03-02T12:47:29;3.57;;;1.37;;
7983;SDS011;4037;47.980;10.172;2024-03-02T12:49:56;2.73;;;1.10;;
7983;SDS011;4037;47.980;10.172;2024-03-02T12:52:22;4.60;;;1.50;;
7983;SDS011;4037;47.980;10.172;2024-03-02T12:54:49;4.00;;;1.37;;
7983;SDS011;4037;47.980;10.172;2024-03-02T12:57:18;2.17;;;1.53;;
7983;SDS011;4037;47.980;10.172;2024-03-02T12:59:45;1.90;;;1.70;;
7983;SDS011;4037;47.980;10.172;2024-03-02T13:02:21;1.57;;;1.33;;
7983;SDS011;4037;47.980;10.172;2024-03-02T13:04:53;4.80;;;1.60;;
7983;SDS011;4037;47.980;10.172;2024-03-02T13:07:19;3.00;;;2.60;;
7983;SDS011;4037;47.980;10.172;2024-03-02T13:09:47;3.30;;;2.10;;
7983;SDS011;4037;47.980;10.172;2024-03-02T13:12:14;3.30;;;1.60;;
7983;SDS011;4037;47.980;10.172;2024-03-02T13:14:41;1.53;;;1.20;;
7983;SDS011;4037;47.980;10.172;2024-03-02T13:17:10;1.88;;;1.20;;
7983;SDS011;4037;47.980;10.172;2024-03-02T13:19:43;2.15;;;1.20;;
7983;SDS011;4037;47.980;10.172;2024-03-02T13:22:09;1.30;;;1.02;;
7983;SDS011;4037;47.980;10.172;2024-03-02T13:24:35;1.65;;;1.00;;
7983;SDS011;4037;47.980;10.172;2024-03-02T13:27:01;1.10;;;1.00;;
7983;SDS011;4037;47.980;10.172;2024-03-02T13:29:29;3.03;;;1.67;;
7983;SDS011;4037;47.980;10.172;2024-03-02T13:31:55;3.10;;;1.60;;
7983;SDS011;4037;47.980;10.172;2024-03-02T13:34:22;1.98;;;1.48;;
7983;SDS011;4037;47.980;10.172;2024-03-02T13:36:48;2.05;;;1.85;;
7983;SDS011;4037;47.980;10.172;2024-03-02T13:39:15;1.70;;;1.60;;
7983;SDS011;4037;47.980;10.172;2024-03-02T13:41:41;3.33;;;1.58;;
7983;SDS011;4037;47.980;10.172;2024-03-02T13:44:09;4.72;;;2.00;;
7983;SDS011;4037;47.980;10.172;2024-03-02T13:46:36;3.15;;;2.08;;
7983;SDS011;4037;47.980;10.172;2024-03-02T13:49:02;2.03;;;1.90;;
7983;SDS011;4037;47.980;10.172;2024-03-02T13:51:29;1.98;;;1.77;;
7983;SDS011;4037;47.980;10.172;2024-03-02T13:53:55;2.08;;;1.88;;
7983;SDS011;4037;47.980;10.172;2024-03-02T13:56:21;1.63;;;1.52;;
7983;SDS011;4037;47.980;10.172;2024-03-02T13:58:47;1.95;;;1.75;;
7983;SDS011;4037;47.980;10.172;2024-03-02T14:01:13;2.53;;;1.90;;
7983;SDS011;4037;47.980;10.172;2024-03-02T14:03:39;3.60;;;2.33;;
7983;SDS011;4037;47.980;10.172;2024-03-02T14:06:05;2.07;;;1.80;;
7983;SDS011;4037;47.980;10.172;2024-03-02T14:08:31;2.00;;;1.80;;
7983;SDS011;4037;47.980;10.172;2024-03-02T14:10:59;2.03;;;1.63;;
7983;SDS011;4037;47.980;10.172;2024-03-02T14:13:25;1.90;;;1.60;;
7983;SDS011;4037;47.980;10.172;2024-03-02T14:15:51;1.57;;;1.30;;
7983;SDS011;4037;47.980;10.172;2024-03-02T14:18:17;2.73;;;1.33;;
7983;SDS011;4037;47.980;10.172;2024-03-02T14:20:43;1.83;;;1.60;;
7983;SDS011;4037;47.980;10.172;2024-03-02T14:23:09;1.93;;;1.30;;
7983;SDS011;4037;47.980;10.172;2024-03-02T14:25:35;1.17;;;1.07;;
7983;SDS011;4037;47.980;10.172;2024-03-02T14:28:01;1.50;;;1.27;;
7983;SDS011;4037;47.980;10.172;2024-03-02T14:30:27;3.47;;;1.40;;
7983;SDS011;4037;47.980;10.172;2024-03-02T14:32:53;2.10;;;1.73;;
7983;SDS011;4037;47.980;10.172;2024-03-02T14:35:19;1.97;;;1.57;;
7983;SDS011;4037;47.980;10.172;2024-03-02T14:37:47;2.47;;;1.77;;
7983;SDS011;4037;47.980;10.172;2024-03-02T14:40:13;2.20;;;1.83;;
7983;SDS011;4037;47.980;10.172;2024-03-02T14:42:40;2.83;;;1.90;;
7983;SDS011;4037;47.980;10.172;2024-03-02T14:45:07;2.40;;;2.20;;
7983;SDS011;4037;47.980;10.172;2024-03-02T14:47:33;3.03;;;2.43;;
7983;SDS011;4037;47.980;10.172;2024-03-02T14:50:00;3.00;;;2.13;;
7983;SDS011;4037;47.980;10.172;2024-03-02T14:52:31;2.07;;;1.80;;
7983;SDS011;4037;47.980;10.172;2024-03-02T14:54:57;3.50;;;2.03;;
7983;SDS011;4037;47.980;10.172;2024-03-02T14:57:23;2.00;;;1.73;;
7983;SDS011;4037;47.980;10.172;2024-03-02T14:59:49;3.97;;;2.80;;
7983;SDS011;4037;47.980;10.172;2024-03-02T15:02:15;4.90;;;2.23;;
7983;SDS011;4037;47.980;10.172;2024-03-02T15:04:41;3.70;;;2.97;;